createdAt,value
2022-12-12T00:01:42.425Z,7.28
2022-12-12T00:04:09.695Z,7.13
2022-12-12T00:06:37.720Z,6.78
2022-12-12T00:09:05.557Z,6.47
2022-12-12T00:11:32.940Z,6.60
2022-12-12T00:14:00.264Z,6.70
2022-12-12T00:16:27.640Z,6.03
2022-12-12T00:18:55.108Z,7.18
2022-12-12T00:21:27.366Z,5.57
2022-12-12T00:23:55.162Z,5.15
2022-12-12T00:26:27.140Z,6.00
2022-12-12T00:28:54.773Z,6.57
2022-12-12T00:31:22.187Z,7.07
2022-12-12T00:33:50.329Z,6.07
2022-12-12T00:36:19.047Z,7.05
2022-12-12T00:38:46.557Z,6.00
2022-12-12T00:41:14.153Z,6.85
2022-12-12T00:43:41.613Z,6.95
2022-12-12T00:46:09.329Z,6.38
2022-12-12T00:48:37.125Z,6.15
2022-12-12T00:51:09.587Z,5.43
2022-12-12T00:53:38.087Z,6.38
2022-12-12T00:56:05.554Z,5.97
2022-12-12T00:58:33.099Z,5.88
2022-12-12T01:01:06.346Z,6.82
2022-12-12T01:03:37.594Z,6.35
2022-12-12T01:06:05.503Z,5.53
2022-12-12T01:08:32.806Z,5.93
2022-12-12T01:11:00.439Z,5.88
2022-12-12T01:13:27.593Z,5.47
2022-12-12T01:15:55.267Z,6.75
2022-12-12T01:18:22.841Z,5.70
2022-12-12T01:20:49.987Z,6.70
2022-12-12T01:23:17.365Z,6.80
2022-12-12T01:25:44.513Z,5.95
2022-12-12T01:28:11.838Z,6.22
2022-12-12T01:30:39.257Z,7.38
2022-12-12T01:33:06.707Z,6.38
2022-12-12T01:35:34.146Z,6.43
2022-12-12T01:38:01.483Z,6.28
2022-12-12T01:40:29.856Z,5.90
2022-12-12T01:42:57.477Z,6.57
2022-12-12T01:45:43.345Z,6.88
2022-12-12T01:48:10.577Z,5.53
2022-12-12T01:50:38.002Z,6.13
2022-12-12T01:53:05.496Z,6.35
2022-12-12T01:55:32.779Z,6.60
2022-12-12T01:58:00.400Z,5.72
2022-12-12T02:00:28.062Z,6.68
2022-12-12T02:02:56.927Z,6.25
2022-12-12T02:05:26.552Z,5.97
2022-12-12T02:07:54.572Z,6.97
2022-12-12T02:10:22.498Z,5.85
2022-12-12T02:12:49.832Z,6.60
2022-12-12T02:15:17.472Z,6.07
2022-12-12T02:17:47.831Z,7.03
2022-12-12T02:20:21.042Z,7.03
2022-12-12T02:22:48.191Z,6.70
2022-12-12T02:25:28.790Z,5.97
2022-12-12T02:28:02.558Z,6.43
2022-12-12T02:30:29.768Z,6.75
2022-12-12T02:33:03.109Z,6.63
2022-12-12T02:35:45.331Z,6.18
2022-12-12T02:40:46.495Z,6.07
2022-12-12T02:43:13.789Z,5.78
2022-12-12T02:45:52.162Z,6.05
2022-12-12T02:48:31.264Z,6.20
2022-12-12T02:51:01.434Z,5.30
2022-12-12T02:53:28.987Z,6.40
2022-12-12T02:56:03.152Z,6.95
2022-12-12T02:58:31.299Z,6.90
2022-12-12T03:01:11.506Z,5.35
2022-12-12T03:04:04.035Z,6.63
2022-12-12T03:09:49.204Z,5.63
2022-12-12T03:12:24.044Z,6.38
2022-12-12T03:15:03.219Z,6.75
2022-12-12T03:17:34.384Z,5.80
2022-12-12T03:20:01.900Z,6.07
2022-12-12T03:22:36.911Z,6.13
2022-12-12T03:25:04.259Z,7.53
2022-12-12T03:27:38.561Z,6.22
2022-12-12T03:30:16.013Z,5.75
2022-12-12T03:32:53.219Z,6.07
2022-12-12T03:35:23.954Z,5.70
2022-12-12T03:37:54.976Z,5.65
2022-12-12T03:40:40.398Z,5.93
2022-12-12T03:43:10.019Z,5.70
2022-12-12T03:45:40.526Z,5.85
2022-12-12T03:48:13.821Z,6.10
2022-12-12T03:50:46.514Z,6.28
2022-12-12T03:53:25.448Z,6.53
2022-12-12T03:55:57.508Z,6.68
2022-12-12T03:58:28.758Z,7.35
2022-12-12T04:00:58.070Z,6.83
2022-12-12T04:03:28.607Z,6.68
2022-12-12T04:06:19.830Z,7.53
2022-12-12T04:09:07.989Z,6.45
2022-12-12T04:12:11.424Z,6.70
2022-12-12T04:14:44.765Z,6.25
2022-12-12T04:17:15.901Z,5.47
2022-12-12T04:20:15.022Z,6.50
2022-12-12T04:23:04.777Z,5.88
2022-12-12T04:25:32.072Z,6.65
2022-12-12T04:28:02.762Z,6.38
2022-12-12T04:30:31.998Z,5.40
2022-12-12T04:33:03.508Z,6.22
2022-12-12T04:35:30.822Z,6.82
2022-12-12T04:37:59.410Z,6.55
2022-12-12T04:40:29.919Z,5.45
2022-12-12T04:43:07.710Z,5.65
2022-12-12T04:45:41.611Z,5.93
2022-12-12T04:48:10.689Z,6.38
2022-12-12T04:50:39.021Z,5.28
2022-12-12T04:53:16.552Z,5.60
2022-12-12T04:55:47.928Z,6.10
2022-12-12T04:58:15.482Z,5.63
2022-12-12T05:00:54.295Z,6.45
2022-12-12T05:03:21.753Z,6.35
2022-12-12T05:06:00.352Z,6.45
2022-12-12T05:08:32.015Z,6.25
2022-12-12T05:11:01.361Z,6.65
2022-12-12T05:13:32.404Z,6.30
2022-12-12T05:16:00.796Z,6.38
2022-12-12T05:18:28.017Z,5.35
2022-12-12T05:20:55.132Z,6.45
2022-12-12T05:23:22.537Z,6.53
2022-12-12T05:25:49.770Z,6.10
2022-12-12T05:28:16.963Z,6.10
2022-12-12T05:30:44.337Z,6.53
2022-12-12T05:33:11.846Z,6.93
2022-12-12T05:35:38.996Z,6.30
2022-12-12T05:38:06.367Z,6.03
2022-12-12T05:40:33.714Z,5.35
2022-12-12T05:43:01.272Z,5.75
2022-12-12T05:45:28.640Z,5.90
2022-12-12T05:47:55.920Z,6.78
2022-12-12T05:50:23.029Z,6.95
2022-12-12T05:52:50.281Z,6.45
2022-12-12T05:55:17.586Z,5.82
2022-12-12T05:57:45.111Z,6.25
2022-12-12T06:00:12.971Z,6.20
2022-12-12T06:02:40.494Z,5.90
2022-12-12T06:05:08.347Z,7.25
2022-12-12T06:07:35.798Z,7.05
2022-12-12T06:10:03.305Z,7.78
2022-12-12T06:12:30.527Z,7.25
2022-12-12T06:14:57.866Z,6.25
2022-12-12T06:17:29.703Z,6.95
2022-12-12T06:20:00.575Z,6.18
2022-12-12T06:22:28.265Z,6.32
2022-12-12T06:24:55.825Z,5.53
2022-12-12T06:27:23.018Z,7.03
2022-12-12T06:29:50.233Z,6.75
2022-12-12T06:32:17.880Z,7.00
2022-12-12T06:34:45.448Z,6.25
2022-12-12T06:37:17.219Z,6.82
2022-12-12T06:42:12.247Z,6.03
2022-12-12T06:44:39.473Z,6.80
2022-12-12T06:47:06.774Z,5.90
2022-12-12T06:49:36.253Z,6.82
2022-12-12T06:52:03.627Z,6.43
2022-12-12T06:54:31.034Z,6.32
2022-12-12T06:56:58.391Z,7.20
2022-12-12T06:59:25.651Z,6.55
2022-12-12T07:01:56.172Z,6.50
2022-12-12T07:04:23.478Z,6.43
2022-12-12T07:06:50.716Z,6.82
2022-12-12T07:09:19.291Z,7.25
2022-12-12T07:11:46.634Z,6.85
2022-12-12T07:14:13.988Z,6.90
2022-12-12T07:16:41.370Z,6.07
2022-12-12T07:19:08.539Z,6.70
2022-12-12T07:21:35.798Z,6.53
2022-12-12T07:24:02.968Z,7.28
2022-12-12T07:26:30.392Z,6.28
2022-12-12T07:28:58.060Z,6.10
2022-12-12T07:31:26.570Z,6.00
2022-12-12T07:33:56.949Z,6.82
2022-12-12T07:36:24.294Z,6.85
2022-12-12T07:38:55.355Z,6.60
2022-12-12T07:41:22.623Z,5.97
2022-12-12T07:43:51.000Z,6.63
2022-12-12T07:46:20.398Z,7.20
2022-12-12T07:48:47.643Z,6.60
2022-12-12T07:51:15.513Z,7.40
2022-12-12T07:53:42.953Z,6.55
2022-12-12T07:56:10.976Z,6.60
2022-12-12T07:58:38.848Z,7.35
2022-12-12T08:01:14.892Z,6.60
2022-12-12T08:03:42.439Z,6.82
2022-12-12T08:06:09.814Z,6.80
2022-12-12T08:08:37.600Z,6.18
2022-12-12T08:11:09.265Z,7.20
2022-12-12T08:13:37.848Z,6.50
2022-12-12T08:16:06.332Z,6.65
2022-12-12T08:18:33.926Z,7.82
2022-12-12T08:21:01.779Z,7.03
2022-12-12T08:23:29.008Z,7.30
2022-12-12T08:25:56.586Z,7.30
2022-12-12T08:28:23.934Z,6.88
2022-12-12T08:30:51.727Z,6.85
2022-12-12T08:33:19.328Z,6.65
2022-12-12T08:35:46.636Z,8.20
2022-12-12T08:38:13.909Z,6.05
2022-12-12T08:40:41.743Z,7.22
2022-12-12T08:43:09.789Z,7.65
2022-12-12T08:45:41.076Z,7.40
2022-12-12T08:48:08.639Z,7.55
2022-12-12T08:50:36.074Z,6.22
2022-12-12T08:53:03.282Z,6.32
2022-12-12T08:55:31.274Z,7.53
2022-12-12T08:57:58.436Z,7.25
2022-12-12T09:00:25.505Z,7.00
2022-12-12T09:02:52.721Z,7.22
2022-12-12T09:05:20.028Z,6.35
2022-12-12T09:07:47.182Z,7.28
2022-12-12T09:10:15.307Z,7.60
2022-12-12T09:12:42.594Z,6.43
2022-12-12T09:15:10.268Z,7.13
2022-12-12T09:17:37.624Z,7.03
2022-12-12T09:20:05.100Z,7.10
2022-12-12T09:22:32.311Z,6.35
2022-12-12T09:25:00.180Z,7.28
2022-12-12T09:27:27.399Z,6.85
2022-12-12T09:29:54.821Z,7.47
2022-12-12T09:32:24.840Z,7.53
2022-12-12T09:34:52.994Z,8.30
2022-12-12T09:37:20.409Z,6.70
2022-12-12T09:39:47.734Z,7.60
2022-12-12T09:42:24.137Z,7.65
2022-12-12T09:44:56.590Z,8.23
2022-12-12T09:47:39.641Z,6.40
2022-12-12T09:50:27.215Z,7.47
2022-12-12T09:52:56.529Z,8.68
2022-12-12T09:55:36.504Z,8.05
2022-12-12T09:58:07.817Z,7.07
2022-12-12T10:00:37.377Z,7.38
2022-12-12T10:03:31.533Z,6.68
2022-12-12T10:06:36.031Z,7.75
2022-12-12T10:09:13.316Z,7.22
2022-12-12T10:11:50.678Z,6.93
2022-12-12T10:14:29.250Z,7.57
2022-12-12T10:16:58.567Z,7.43
2022-12-12T10:19:28.410Z,7.13
2022-12-12T10:21:57.210Z,6.72
2022-12-12T10:24:29.309Z,7.80
2022-12-12T10:29:26.427Z,6.47
2022-12-12T10:32:12.715Z,7.75
2022-12-12T10:34:41.196Z,6.97
2022-12-12T10:37:11.633Z,7.30
2022-12-12T10:39:59.312Z,6.95
2022-12-12T10:42:29.721Z,7.20
2022-12-12T10:45:06.542Z,7.22
2022-12-12T10:47:34.854Z,8.50
2022-12-12T10:50:12.841Z,8.35
2022-12-12T10:52:40.723Z,6.93
2022-12-12T10:55:28.240Z,8.75
2022-12-12T10:58:02.045Z,6.03
2022-12-12T11:00:33.701Z,8.20
2022-12-12T11:03:11.663Z,7.05
2022-12-12T11:05:39.892Z,8.57
2022-12-12T11:08:08.415Z,7.72
2022-12-12T11:10:37.381Z,7.55
2022-12-12T11:13:14.923Z,7.50
2022-12-12T11:15:42.091Z,7.07
2022-12-12T11:18:14.536Z,8.00
2022-12-12T11:20:45.536Z,7.65
2022-12-12T11:23:25.332Z,7.15
2022-12-12T11:25:59.944Z,7.80
2022-12-12T11:28:28.864Z,7.65
2022-12-12T11:30:57.427Z,7.35
2022-12-12T11:33:31.634Z,8.05
2022-12-12T11:35:59.019Z,8.70
2022-12-12T11:38:32.317Z,7.50
2022-12-12T11:41:07.239Z,7.82
2022-12-12T11:43:38.378Z,6.95
2022-12-12T11:46:18.232Z,7.47
2022-12-12T11:48:48.631Z,7.57
2022-12-12T11:51:30.573Z,6.65
2022-12-12T11:53:58.934Z,7.28
2022-12-12T11:56:33.056Z,6.95
2022-12-12T11:59:19.924Z,8.10
2022-12-12T12:01:47.237Z,8.23
2022-12-12T12:04:14.590Z,7.38
2022-12-12T12:06:45.077Z,6.75
2022-12-12T12:09:37.046Z,6.43
2022-12-12T12:12:07.614Z,7.22
2022-12-12T12:14:38.492Z,8.20
2022-12-12T12:17:23.775Z,7.65
2022-12-12T12:19:56.035Z,7.05
2022-12-12T12:22:26.264Z,7.13
2022-12-12T12:24:53.525Z,6.82
2022-12-12T12:27:27.171Z,6.53
2022-12-12T12:30:13.415Z,6.97
2022-12-12T12:32:40.737Z,7.40
2022-12-12T12:35:29.299Z,7.43
2022-12-12T12:38:00.618Z,7.97
2022-12-12T12:40:46.452Z,6.90
2022-12-12T12:43:17.193Z,7.85
2022-12-12T12:45:46.632Z,8.38
2022-12-12T12:48:13.897Z,7.38
2022-12-12T12:50:43.751Z,7.60
2022-12-12T12:53:23.196Z,7.47
2022-12-12T12:55:52.168Z,7.25
2022-12-12T12:58:21.665Z,7.05
2022-12-12T13:00:54.004Z,8.60
2022-12-12T13:03:25.195Z,7.75
2022-12-12T13:05:54.392Z,7.13
2022-12-12T13:08:35.477Z,7.40
2022-12-12T13:11:18.372Z,7.80
2022-12-12T13:13:47.170Z,7.65
2022-12-12T13:16:17.130Z,8.25
2022-12-12T13:18:46.234Z,8.15
2022-12-12T13:21:13.574Z,9.30
2022-12-12T13:23:50.023Z,8.65
2022-12-12T13:26:17.073Z,9.65
2022-12-12T13:28:46.802Z,9.40
2022-12-12T13:31:32.681Z,9.18
2022-12-12T13:34:08.408Z,8.23
2022-12-12T13:36:37.537Z,9.35
2022-12-12T13:39:06.337Z,8.75
2022-12-12T13:42:03.075Z,9.82
2022-12-12T13:44:42.466Z,10.02
2022-12-12T13:47:29.813Z,11.25
2022-12-12T13:50:00.422Z,9.60
2022-12-12T13:52:32.798Z,8.13
2022-12-12T13:55:13.068Z,10.40
2022-12-12T13:58:09.387Z,9.55
2022-12-12T14:00:37.477Z,10.20
2022-12-12T14:03:10.819Z,9.65
2022-12-12T14:05:41.984Z,10.40
2022-12-12T14:08:21.288Z,9.98
2022-12-12T14:10:56.885Z,10.20
2022-12-12T14:13:24.199Z,11.50
2022-12-12T14:16:03.830Z,10.43
2022-12-12T14:18:34.081Z,10.63
2022-12-12T14:21:09.233Z,11.70
2022-12-12T14:23:42.283Z,11.02
2022-12-12T14:26:25.010Z,10.00
2022-12-12T14:29:10.657Z,10.80
2022-12-12T14:31:40.759Z,10.80
2022-12-12T14:34:07.965Z,11.30
2022-12-12T14:36:55.409Z,12.13
2022-12-12T14:39:38.029Z,11.30
2022-12-12T14:42:08.872Z,11.23
2022-12-12T14:44:47.872Z,12.07
2022-12-12T14:47:18.406Z,11.15
2022-12-12T14:49:45.653Z,10.60
2022-12-12T14:52:22.362Z,11.18
2022-12-12T14:54:51.377Z,11.10
2022-12-12T14:57:21.254Z,11.52
2022-12-12T14:59:48.909Z,11.02
2022-12-12T15:02:16.024Z,12.27
2022-12-12T15:04:45.066Z,11.65
2022-12-12T15:07:23.528Z,12.18
2022-12-12T15:09:51.062Z,11.35
2022-12-12T15:12:20.631Z,12.25
2022-12-12T15:14:47.741Z,13.27
2022-12-12T15:17:17.662Z,14.50
2022-12-12T15:19:47.249Z,12.60
2022-12-12T15:22:17.787Z,13.98
2022-12-12T15:24:44.955Z,13.00
2022-12-12T15:27:16.925Z,13.18
2022-12-12T15:29:44.481Z,12.27
2022-12-12T15:32:18.178Z,13.20
2022-12-12T15:34:47.267Z,11.73
2022-12-12T15:37:17.701Z,12.98
2022-12-12T15:39:45.164Z,10.68
2022-12-12T15:42:13.679Z,13.63
2022-12-12T15:44:42.501Z,13.23
2022-12-12T15:47:14.033Z,14.23
2022-12-12T15:49:42.985Z,12.13
2022-12-12T15:52:13.112Z,12.52
2022-12-12T15:54:45.625Z,12.30
2022-12-12T15:57:20.714Z,11.52
2022-12-12T15:59:52.501Z,12.38
2022-12-12T16:02:24.683Z,13.07
2022-12-12T16:04:57.856Z,13.38
2022-12-12T16:07:25.116Z,11.40
2022-12-12T16:09:58.945Z,13.52
2022-12-12T16:12:46.330Z,14.07
2022-12-12T16:15:20.349Z,12.52
2022-12-12T16:18:04.821Z,12.52
2022-12-12T16:20:32.162Z,13.15
2022-12-12T16:23:09.560Z,12.10
2022-12-12T16:25:36.835Z,13.63
2022-12-12T16:28:10.060Z,12.70
2022-12-12T16:30:41.383Z,11.00
2022-12-12T16:33:12.708Z,11.82
2022-12-12T16:35:39.970Z,12.35
2022-12-12T16:38:13.541Z,10.35
2022-12-12T16:40:40.939Z,13.18
2022-12-12T16:43:11.805Z,12.75
2022-12-12T16:45:39.743Z,11.02
2022-12-12T16:48:16.778Z,13.77
2022-12-12T16:50:44.132Z,14.27
2022-12-12T16:53:11.687Z,11.48
2022-12-12T16:55:41.254Z,12.25
2022-12-12T16:58:08.626Z,11.57
2022-12-12T17:00:36.056Z,12.20
2022-12-12T17:03:03.376Z,14.23
2022-12-12T17:05:31.376Z,13.30
2022-12-12T17:07:58.650Z,12.57
2022-12-12T17:10:26.255Z,10.73
2022-12-12T17:12:54.641Z,12.63
2022-12-12T17:15:24.235Z,12.75
2022-12-12T17:17:51.404Z,13.13
2022-12-12T17:20:18.523Z,13.15
2022-12-12T17:22:45.950Z,12.25
2022-12-12T17:25:13.217Z,12.63
2022-12-12T17:27:41.153Z,12.30
2022-12-12T17:30:10.489Z,13.15
2022-12-12T17:32:38.030Z,12.38
2022-12-12T17:35:05.891Z,13.05
2022-12-12T17:37:33.041Z,14.20
2022-12-12T17:40:00.714Z,12.40
2022-12-12T17:42:30.291Z,14.48
2022-12-12T17:44:58.479Z,13.57
2022-12-12T17:47:25.896Z,13.25
2022-12-12T17:49:53.052Z,12.85
2022-12-12T17:52:20.239Z,13.35
2022-12-12T17:55:54.206Z,13.73
2022-12-12T17:57:35.511Z,12.82
2022-12-12T18:00:02.774Z,13.05
2022-12-12T18:02:30.721Z,13.75
2022-12-12T18:04:58.093Z,12.55
2022-12-12T18:07:25.386Z,12.75
2022-12-12T18:09:52.495Z,11.05
2022-12-12T18:12:20.007Z,12.85
2022-12-12T18:14:47.701Z,14.82
2022-12-12T18:17:15.585Z,13.85
2022-12-12T18:19:42.845Z,12.05
2022-12-12T18:22:10.864Z,12.30
2022-12-12T18:24:38.446Z,12.13
2022-12-12T18:27:05.970Z,13.30
2022-12-12T18:29:33.105Z,11.95
2022-12-12T18:32:00.472Z,12.07
2022-12-12T18:34:27.842Z,13.50
2022-12-12T18:36:54.986Z,15.13
2022-12-12T18:39:22.387Z,12.75
2022-12-12T18:41:49.690Z,12.73
2022-12-12T18:44:16.863Z,13.93
2022-12-12T18:46:44.162Z,12.63
2022-12-12T18:49:15.079Z,15.27
2022-12-12T18:51:42.849Z,17.30
2022-12-12T18:54:14.994Z,16.75
2022-12-12T18:56:43.426Z,14.07
2022-12-12T18:59:11.374Z,14.00
2022-12-12T19:01:38.776Z,15.57
2022-12-12T19:04:12.168Z,13.82
2022-12-12T19:06:41.662Z,13.10
2022-12-12T19:09:12.123Z,14.57
2022-12-12T19:11:39.483Z,12.45
2022-12-12T19:14:08.027Z,11.65
2022-12-12T19:16:35.397Z,12.27
2022-12-12T19:19:05.209Z,11.65
2022-12-12T19:21:33.919Z,12.48
2022-12-12T19:24:02.042Z,16.38
2022-12-12T19:26:29.749Z,11.82
2022-12-12T19:28:58.034Z,10.00
2022-12-12T19:31:25.666Z,11.60
2022-12-12T19:33:53.099Z,11.82
2022-12-12T19:36:24.298Z,10.65
2022-12-12T19:38:51.494Z,12.23
2022-12-12T19:41:20.257Z,12.77
2022-12-12T19:43:47.760Z,13.05
2022-12-12T19:46:16.857Z,11.73
2022-12-12T19:48:44.603Z,10.73
2022-12-12T19:51:13.764Z,12.02
2022-12-12T19:53:41.577Z,13.48
2022-12-12T19:56:09.144Z,14.27
2022-12-12T19:58:38.704Z,12.65
2022-12-12T20:01:10.375Z,11.38
2022-12-12T20:03:37.590Z,11.50
2022-12-12T20:06:06.208Z,10.30
2022-12-12T20:08:34.713Z,10.73
2022-12-12T20:11:09.340Z,10.48
2022-12-12T20:13:36.648Z,11.68
2022-12-12T20:16:07.970Z,10.65
2022-12-12T20:18:35.659Z,9.73
2022-12-12T20:21:03.514Z,11.32
2022-12-12T20:23:35.058Z,10.73
2022-12-12T20:26:09.886Z,9.45
2022-12-12T20:28:37.353Z,10.25
2022-12-12T20:31:16.546Z,9.23
2022-12-12T20:33:44.229Z,11.45
2022-12-12T20:36:12.525Z,11.00
2022-12-12T20:38:40.801Z,11.52
2022-12-12T20:41:11.946Z,11.05
2022-12-12T20:43:39.609Z,10.23
2022-12-12T20:46:13.279Z,11.25
2022-12-12T20:48:41.505Z,10.68
2022-12-12T20:51:31.000Z,10.98
2022-12-12T20:54:03.115Z,11.10
2022-12-12T20:56:30.661Z,11.38
2022-12-12T20:58:59.764Z,12.82
2022-12-12T21:01:28.348Z,11.77
2022-12-12T21:03:55.779Z,11.38
2022-12-12T21:06:22.915Z,10.98
2022-12-12T21:08:51.310Z,9.43
2022-12-12T21:11:19.789Z,10.80
2022-12-12T21:13:49.036Z,11.02
2022-12-12T21:16:22.433Z,10.27
2022-12-12T21:18:51.788Z,10.88
2022-12-12T21:21:19.349Z,10.75
2022-12-12T21:23:46.607Z,10.98
2022-12-12T21:26:19.740Z,10.02
2022-12-12T21:28:49.015Z,9.52
2022-12-12T21:31:17.589Z,10.63
2022-12-12T21:33:45.252Z,8.98
2022-12-12T21:36:14.056Z,11.32
2022-12-12T21:38:41.523Z,10.18
2022-12-12T21:41:10.544Z,9.50
2022-12-12T21:43:37.889Z,10.82
2022-12-12T21:46:10.093Z,10.35
2022-12-12T21:48:37.231Z,9.25
2022-12-12T21:51:05.443Z,10.27
2022-12-12T21:53:36.451Z,9.55
2022-12-12T21:56:13.922Z,10.23
2022-12-12T21:58:41.817Z,9.80
2022-12-12T22:01:10.268Z,8.60
2022-12-12T22:03:37.970Z,11.30
2022-12-12T22:06:22.011Z,10.23
2022-12-12T22:08:49.397Z,8.93
2022-12-12T22:11:33.975Z,11.32
2022-12-12T22:14:05.344Z,9.45
2022-12-12T22:16:33.611Z,9.93
2022-12-12T22:19:06.073Z,9.65
2022-12-12T22:21:33.782Z,10.10
2022-12-12T22:24:01.116Z,9.60
2022-12-12T22:26:28.341Z,8.98
2022-12-12T22:28:57.515Z,10.35
2022-12-12T22:31:26.099Z,10.90
2022-12-12T22:33:59.312Z,9.27
2022-12-12T22:36:28.297Z,11.50
2022-12-12T22:38:55.847Z,8.88
2022-12-12T22:41:23.207Z,7.97
2022-12-12T22:43:54.128Z,9.57
2022-12-12T22:46:21.389Z,9.20
2022-12-12T22:48:48.606Z,10.20
2022-12-12T22:51:20.726Z,9.45
2022-12-12T22:53:48.517Z,9.00
2022-12-12T22:56:15.637Z,8.77
2022-12-12T22:58:42.873Z,10.60
2022-12-12T23:01:11.297Z,9.52
2022-12-12T23:03:38.956Z,11.13
2022-12-12T23:06:16.952Z,10.93
2022-12-12T23:08:44.879Z,11.27
2022-12-12T23:11:16.375Z,10.77
2022-12-12T23:13:44.312Z,10.30
2022-12-12T23:16:16.327Z,10.77
2022-12-12T23:21:16.675Z,11.25
2022-12-12T23:23:44.757Z,10.27
2022-12-12T23:26:13.646Z,9.80
2022-12-12T23:28:41.539Z,11.07
2022-12-12T23:31:16.112Z,9.50
2022-12-12T23:33:43.244Z,10.35
2022-12-12T23:36:11.370Z,9.90
2022-12-12T23:38:38.793Z,9.15
2022-12-12T23:41:06.924Z,9.32
2022-12-12T23:43:34.037Z,10.50
2022-12-12T23:46:02.496Z,8.45
2022-12-12T23:48:29.933Z,10.45
2022-12-12T23:50:57.359Z,9.15
2022-12-12T23:53:24.515Z,9.77
2022-12-12T23:55:51.699Z,9.23
2022-12-12T23:58:18.853Z,8.30
